Terminal Aerodrome Forecast
Issued by NWS

Home | Current Version | Previous Version | Text Only | Print | Product List | Glossary On
Versions: 1 2 3 4 5 6 7 8 9 10 11 12 13 14
000
FTUS44 KLZK 220500
TAFBPK
TAF
KBPK 220527Z 2206/2306 00000KT P6SM SKC
     FM221400 13006KT P6SM SCT250
     FM230000 12004KT P6SM SCT100=

USA.gov is the U.S. government's official web portal to all federal, state and local government web resources and services.